sensor_id;sensor_type;location;lat;lon;timestamp;P1;durP1;ratioP1;P2;durP2;ratioP2
24409;SDS011;12543;53.364;-1.504;2024-01-15T00:12:13;1.08;;;0.52;;
24409;SDS011;12543;53.364;-1.504;2024-01-15T00:14:41;1.33;;;0.40;;
24409;SDS011;12543;53.364;-1.504;2024-01-15T00:17:09;1.35;;;0.45;;
24409;SDS011;12543;53.364;-1.504;2024-01-15T00:19:36;0.45;;;0.40;;
24409;SDS011;12543;53.364;-1.504;2024-01-15T00:22:04;1.08;;;0.57;;
24409;SDS011;12543;53.364;-1.504;2024-01-15T00:24:32;2.20;;;0.60;;
24409;SDS011;12543;53.364;-1.504;2024-01-15T00:26:59;0.80;;;0.43;;
24409;SDS011;12543;53.364;-1.504;2024-01-15T00:29:27;1.47;;;0.50;;
24409;SDS011;12543;53.364;-1.504;2024-01-15T00:31:55;0.63;;;0.30;;
24409;SDS011;12543;53.364;-1.504;2024-01-15T00:34:22;1.07;;;0.40;;
24409;SDS011;12543;53.364;-1.504;2024-01-15T00:36:50;2.42;;;0.50;;
24409;SDS011;12543;53.364;-1.504;2024-01-15T00:39:18;2.05;;;0.50;;
24409;SDS011;12543;53.364;-1.504;2024-01-15T00:41:51;0.95;;;0.55;;
24409;SDS011;12543;53.364;-1.504;2024-01-15T00:44:18;0.47;;;0.47;;
24409;SDS011;12543;53.364;-1.504;2024-01-15T00:46:46;1.43;;;0.70;;
24409;SDS011;12543;53.364;-1.504;2024-01-15T00:49:13;0.53;;;0.40;;
24409;SDS011;12543;53.364;-1.504;2024-01-15T00:51:41;1.00;;;0.40;;
24409;SDS011;12543;53.364;-1.504;2024-01-15T00:54:09;1.65;;;0.50;;
24409;SDS011;12543;53.364;-1.504;2024-01-15T00:56:37;2.30;;;0.53;;
24409;SDS011;12543;53.364;-1.504;2024-01-15T00:59:04;0.77;;;0.57;;
24409;SDS011;12543;53.364;-1.504;2024-01-15T01:01:33;0.82;;;0.55;;
24409;SDS011;12543;53.364;-1.504;2024-01-15T01:04:00;1.10;;;0.40;;
24409;SDS011;12543;53.364;-1.504;2024-01-15T01:06:28;0.93;;;0.50;;
24409;SDS011;12543;53.364;-1.504;2024-01-15T01:08:59;1.05;;;0.55;;
24409;SDS011;12543;53.364;-1.504;2024-01-15T01:11:27;4.47;;;0.50;;
24409;SDS011;12543;53.364;-1.504;2024-01-15T01:13:54;1.50;;;0.50;;
24409;SDS011;12543;53.364;-1.504;2024-01-15T01:16:23;0.60;;;0.40;;
24409;SDS011;12543;53.364;-1.504;2024-01-15T01:18:50;0.65;;;0.38;;
24409;SDS011;12543;53.364;-1.504;2024-01-15T01:21:19;1.10;;;0.55;;
24409;SDS011;12543;53.364;-1.504;2024-01-15T01:23:46;1.73;;;0.93;;
24409;SDS011;12543;53.364;-1.504;2024-01-15T01:26:17;1.25;;;0.70;;
24409;SDS011;12543;53.364;-1.504;2024-01-15T01:28:44;0.85;;;0.30;;
24409;SDS011;12543;53.364;-1.504;2024-01-15T01:31:12;0.50;;;0.40;;
24409;SDS011;12543;53.364;-1.504;2024-01-15T01:33:40;1.05;;;0.40;;
24409;SDS011;12543;53.364;-1.504;2024-01-15T01:36:08;1.05;;;0.47;;
24409;SDS011;12543;53.364;-1.504;2024-01-15T01:38:37;0.80;;;0.60;;
24409;SDS011;12543;53.364;-1.504;2024-01-15T01:41:05;0.73;;;0.40;;
24409;SDS011;12543;53.364;-1.504;2024-01-15T01:43:33;1.65;;;0.50;;
24409;SDS011;12543;53.364;-1.504;2024-01-15T01:46:00;0.60;;;0.47;;
24409;SDS011;12543;53.364;-1.504;2024-01-15T01:48:29;1.70;;;0.50;;
24409;SDS011;12543;53.364;-1.504;2024-01-15T01:50:58;2.05;;;0.47;;
24409;SDS011;12543;53.364;-1.504;2024-01-15T01:53:26;2.85;;;0.70;;
24409;SDS011;12543;53.364;-1.504;2024-01-15T01:55:54;0.65;;;0.40;;
24409;SDS011;12543;53.364;-1.504;2024-01-15T01:58:23;0.65;;;0.30;;
24409;SDS011;12543;53.364;-1.504;2024-01-15T02:00:52;0.77;;;0.30;;
24409;SDS011;12543;53.364;-1.504;2024-01-15T02:03:20;1.13;;;0.40;;
24409;SDS011;12543;53.364;-1.504;2024-01-15T02:05:48;0.77;;;0.53;;
24409;SDS011;12543;53.364;-1.504;2024-01-15T02:08:16;4.20;;;0.90;;
24409;SDS011;12543;53.364;-1.504;2024-01-15T02:10:44;3.30;;;0.70;;
24409;SDS011;12543;53.364;-1.504;2024-01-15T02:13:11;0.70;;;0.47;;
24409;SDS011;12543;53.364;-1.504;2024-01-15T02:15:39;0.77;;;0.60;;
24409;SDS011;12543;53.364;-1.504;2024-01-15T02:18:07;1.05;;;0.50;;
24409;SDS011;12543;53.364;-1.504;2024-01-15T02:20:35;1.88;;;0.47;;
24409;SDS011;12543;53.364;-1.504;2024-01-15T02:25:40;1.00;;;0.63;;
24409;SDS011;12543;53.364;-1.504;2024-01-15T02:28:08;2.35;;;0.50;;
24409;SDS011;12543;53.364;-1.504;2024-01-15T02:30:36;0.82;;;0.65;;
24409;SDS011;12543;53.364;-1.504;2024-01-15T02:33:06;1.20;;;0.50;;
24409;SDS011;12543;53.364;-1.504;2024-01-15T02:35:34;1.67;;;0.52;;
24409;SDS011;12543;53.364;-1.504;2024-01-15T02:38:05;1.20;;;0.50;;
24409;SDS011;12543;53.364;-1.504;2024-01-15T02:40:33;0.50;;;0.50;;
24409;SDS011;12543;53.364;-1.504;2024-01-15T02:43:00;0.98;;;0.50;;
24409;SDS011;12543;53.364;-1.504;2024-01-15T02:45:28;1.10;;;0.45;;
24409;SDS011;12543;53.364;-1.504;2024-01-15T02:47:57;0.82;;;0.30;;
24409;SDS011;12543;53.364;-1.504;2024-01-15T02:50:25;1.13;;;0.90;;
24409;SDS011;12543;53.364;-1.504;2024-01-15T02:52:53;1.65;;;0.52;;
24409;SDS011;12543;53.364;-1.504;2024-01-15T02:55:20;0.82;;;0.40;;
24409;SDS011;12543;53.364;-1.504;2024-01-15T02:57:48;1.63;;;0.57;;
24409;SDS011;12543;53.364;-1.504;2024-01-15T03:00:16;1.20;;;0.40;;
24409;SDS011;12543;53.364;-1.504;2024-01-15T03:02:44;1.05;;;0.50;;
24409;SDS011;12543;53.364;-1.504;2024-01-15T03:05:14;1.70;;;0.55;;
24409;SDS011;12543;53.364;-1.504;2024-01-15T03:07:42;0.95;;;0.35;;
24409;SDS011;12543;53.364;-1.504;2024-01-15T03:10:10;1.80;;;0.88;;
24409;SDS011;12543;53.364;-1.504;2024-01-15T03:12:37;0.67;;;0.50;;
24409;SDS011;12543;53.364;-1.504;2024-01-15T03:15:05;0.60;;;0.40;;
24409;SDS011;12543;53.364;-1.504;2024-01-15T03:17:33;1.10;;;0.38;;
24409;SDS011;12543;53.364;-1.504;2024-01-15T03:20:01;0.93;;;0.40;;
24409;SDS011;12543;53.364;-1.504;2024-01-15T03:22:30;1.45;;;0.40;;
24409;SDS011;12543;53.364;-1.504;2024-01-15T03:24:57;0.50;;;0.30;;
24409;SDS011;12543;53.364;-1.504;2024-01-15T03:27:25;0.70;;;0.40;;
24409;SDS011;12543;53.364;-1.504;2024-01-15T03:29:52;0.95;;;0.40;;
24409;SDS011;12543;53.364;-1.504;2024-01-15T03:32:20;1.13;;;0.40;;
24409;SDS011;12543;53.364;-1.504;2024-01-15T03:34:48;0.68;;;0.50;;
24409;SDS011;12543;53.364;-1.504;2024-01-15T03:37:15;0.68;;;0.40;;
24409;SDS011;12543;53.364;-1.504;2024-01-15T03:39:43;1.85;;;0.32;;
24409;SDS011;12543;53.364;-1.504;2024-01-15T03:42:10;0.53;;;0.30;;
24409;SDS011;12543;53.364;-1.504;2024-01-15T03:44:38;1.67;;;0.30;;
24409;SDS011;12543;53.364;-1.504;2024-01-15T03:47:05;1.27;;;0.40;;
24409;SDS011;12543;53.364;-1.504;2024-01-15T03:49:33;1.65;;;0.38;;
24409;SDS011;12543;53.364;-1.504;2024-01-15T03:52:01;0.40;;;0.30;;
24409;SDS011;12543;53.364;-1.504;2024-01-15T03:54:28;2.20;;;0.50;;
24409;SDS011;12543;53.364;-1.504;2024-01-15T03:56:56;0.47;;;0.20;;
24409;SDS011;12543;53.364;-1.504;2024-01-15T03:59:23;1.23;;;0.30;;
24409;SDS011;12543;53.364;-1.504;2024-01-15T04:01:51;0.73;;;0.30;;
24409;SDS011;12543;53.364;-1.504;2024-01-15T04:04:19;0.57;;;0.37;;
24409;SDS011;12543;53.364;-1.504;2024-01-15T04:06:46;1.93;;;0.40;;
24409;SDS011;12543;53.364;-1.504;2024-01-15T04:09:14;0.47;;;0.20;;
24409;SDS011;12543;53.364;-1.504;2024-01-15T04:11:42;0.45;;;0.30;;
24409;SDS011;12543;53.364;-1.504;2024-01-15T04:14:09;0.98;;;0.30;;
24409;SDS011;12543;53.364;-1.504;2024-01-15T04:16:37;0.63;;;0.38;;
24409;SDS011;12543;53.364;-1.504;2024-01-15T04:19:04;0.30;;;0.20;;
24409;SDS011;12543;53.364;-1.504;2024-01-15T04:21:32;1.85;;;0.30;;
24409;SDS011;12543;53.364;-1.504;2024-01-15T04:24:00;0.75;;;0.20;;
24409;SDS011;12543;53.364;-1.504;2024-01-15T04:26:28;0.63;;;0.30;;
24409;SDS011;12543;53.364;-1.504;2024-01-15T04:28:55;0.28;;;0.28;;
24409;SDS011;12543;53.364;-1.504;2024-01-15T04:31:23;0.90;;;0.30;;
24409;SDS011;12543;53.364;-1.504;2024-01-15T04:33:51;0.55;;;0.30;;
24409;SDS011;12543;53.364;-1.504;2024-01-15T04:36:19;0.32;;;0.30;;
24409;SDS011;12543;53.364;-1.504;2024-01-15T04:38:47;0.63;;;0.40;;
24409;SDS011;12543;53.364;-1.504;2024-01-15T04:41:15;2.30;;;0.30;;
24409;SDS011;12543;53.364;-1.504;2024-01-15T04:43:43;0.98;;;0.20;;
24409;SDS011;12543;53.364;-1.504;2024-01-15T04:46:11;0.20;;;0.20;;
24409;SDS011;12543;53.364;-1.504;2024-01-15T04:48:39;1.15;;;0.40;;
24409;SDS011;12543;53.364;-1.504;2024-01-15T04:51:08;0.45;;;0.30;;
24409;SDS011;12543;53.364;-1.504;2024-01-15T04:53:36;0.57;;;0.20;;
24409;SDS011;12543;53.364;-1.504;2024-01-15T04:56:03;0.50;;;0.30;;
24409;SDS011;12543;53.364;-1.504;2024-01-15T04:58:31;0.52;;;0.20;;
24409;SDS011;12543;53.364;-1.504;2024-01-15T05:00:59;0.32;;;0.30;;
24409;SDS011;12543;53.364;-1.504;2024-01-15T05:03:26;1.38;;;0.20;;
24409;SDS011;12543;53.364;-1.504;2024-01-15T05:05:54;1.17;;;0.30;;
24409;SDS011;12543;53.364;-1.504;2024-01-15T05:08:22;0.95;;;0.20;;
24409;SDS011;12543;53.364;-1.504;2024-01-15T05:10:49;1.23;;;0.30;;
24409;SDS011;12543;53.364;-1.504;2024-01-15T05:13:17;0.63;;;0.30;;
24409;SDS011;12543;53.364;-1.504;2024-01-15T05:15:45;0.40;;;0.20;;
24409;SDS011;12543;53.364;-1.504;2024-01-15T05:18:12;1.30;;;0.30;;
24409;SDS011;12543;53.364;-1.504;2024-01-15T05:20:40;1.95;;;0.40;;
24409;SDS011;12543;53.364;-1.504;2024-01-15T05:25:36;1.60;;;0.35;;
24409;SDS011;12543;53.364;-1.504;2024-01-15T05:28:05;0.50;;;0.30;;
24409;SDS011;12543;53.364;-1.504;2024-01-15T05:30:32;0.40;;;0.20;;
24409;SDS011;12543;53.364;-1.504;2024-01-15T05:33:00;0.47;;;0.40;;
24409;SDS011;12543;53.364;-1.504;2024-01-15T05:35:29;1.08;;;0.22;;
24409;SDS011;12543;53.364;-1.504;2024-01-15T05:37:56;0.38;;;0.30;;
24409;SDS011;12543;53.364;-1.504;2024-01-15T05:40:24;0.20;;;0.20;;
24409;SDS011;12543;53.364;-1.504;2024-01-15T05:42:52;1.95;;;0.40;;
24409;SDS011;12543;53.364;-1.504;2024-01-15T05:45:20;0.45;;;0.30;;
24409;SDS011;12543;53.364;-1.504;2024-01-15T05:47:47;0.30;;;0.30;;
24409;SDS011;12543;53.364;-1.504;2024-01-15T05:50:15;1.77;;;0.30;;
24409;SDS011;12543;53.364;-1.504;2024-01-15T05:52:42;1.30;;;0.30;;
24409;SDS011;12543;53.364;-1.504;2024-01-15T05:55:10;2.20;;;0.30;;
24409;SDS011;12543;53.364;-1.504;2024-01-15T05:57:37;1.60;;;0.40;;
24409;SDS011;12543;53.364;-1.504;2024-01-15T06:00:05;0.20;;;0.20;;
24409;SDS011;12543;53.364;-1.504;2024-01-15T06:02:33;0.15;;;0.10;;
24409;SDS011;12543;53.364;-1.504;2024-01-15T06:05:01;0.93;;;0.30;;
24409;SDS011;12543;53.364;-1.504;2024-01-15T06:07:29;0.77;;;0.40;;
24409;SDS011;12543;53.364;-1.504;2024-01-15T06:09:57;0.82;;;0.30;;
24409;SDS011;12543;53.364;-1.504;2024-01-15T06:12:24;0.20;;;0.20;;
24409;SDS011;12543;53.364;-1.504;2024-01-15T06:14:52;0.43;;;0.20;;
24409;SDS011;12543;53.364;-1.504;2024-01-15T06:17:20;0.55;;;0.30;;
24409;SDS011;12543;53.364;-1.504;2024-01-15T06:19:48;0.63;;;0.38;;
24409;SDS011;12543;53.364;-1.504;2024-01-15T06:22:17;3.67;;;0.45;;
24409;SDS011;12543;53.364;-1.504;2024-01-15T06:24:45;0.30;;;0.30;;
24409;SDS011;12543;53.364;-1.504;2024-01-15T06:27:12;0.93;;;0.30;;
24409;SDS011;12543;53.364;-1.504;2024-01-15T06:29:44;1.03;;;0.50;;
24409;SDS011;12543;53.364;-1.504;2024-01-15T06:32:16;0.85;;;0.40;;
24409;SDS011;12543;53.364;-1.504;2024-01-15T06:34:44;0.50;;;0.40;;
24409;SDS011;12543;53.364;-1.504;2024-01-15T06:37:11;0.50;;;0.50;;
24409;SDS011;12543;53.364;-1.504;2024-01-15T06:39:39;1.65;;;0.40;;
24409;SDS011;12543;53.364;-1.504;2024-01-15T06:42:07;1.37;;;0.40;;
24409;SDS011;12543;53.364;-1.504;2024-01-15T06:44:34;0.98;;;0.45;;
24409;SDS011;12543;53.364;-1.504;2024-01-15T06:47:02;1.53;;;0.40;;
24409;SDS011;12543;53.364;-1.504;2024-01-15T06:49:29;0.67;;;0.30;;
24409;SDS011;12543;53.364;-1.504;2024-01-15T06:51:57;1.05;;;0.40;;
24409;SDS011;12543;53.364;-1.504;2024-01-15T06:54:25;0.60;;;0.33;;
24409;SDS011;12543;53.364;-1.504;2024-01-15T06:56:53;1.10;;;0.30;;
24409;SDS011;12543;53.364;-1.504;2024-01-15T06:59:20;1.08;;;0.40;;
24409;SDS011;12543;53.364;-1.504;2024-01-15T07:01:48;1.92;;;0.50;;
24409;SDS011;12543;53.364;-1.504;2024-01-15T07:04:16;2.40;;;0.50;;
24409;SDS011;12543;53.364;-1.504;2024-01-15T07:06:43;2.00;;;0.38;;
24409;SDS011;12543;53.364;-1.504;2024-01-15T07:09:11;1.48;;;0.45;;
24409;SDS011;12543;53.364;-1.504;2024-01-15T07:11:43;2.23;;;0.80;;
24409;SDS011;12543;53.364;-1.504;2024-01-15T07:14:11;0.68;;;0.40;;
24409;SDS011;12543;53.364;-1.504;2024-01-15T07:16:38;1.30;;;0.43;;
24409;SDS011;12543;53.364;-1.504;2024-01-15T07:19:07;2.25;;;0.45;;
24409;SDS011;12543;53.364;-1.504;2024-01-15T07:21:34;0.47;;;0.30;;
24409;SDS011;12543;53.364;-1.504;2024-01-15T07:24:02;2.10;;;0.50;;
24409;SDS011;12543;53.364;-1.504;2024-01-15T07:26:30;0.83;;;0.30;;
24409;SDS011;12543;53.364;-1.504;2024-01-15T07:28:57;1.63;;;0.95;;
24409;SDS011;12543;53.364;-1.504;2024-01-15T07:31:25;0.80;;;0.43;;
24409;SDS011;12543;53.364;-1.504;2024-01-15T07:33:53;1.23;;;0.63;;
24409;SDS011;12543;53.364;-1.504;2024-01-15T07:36:20;0.60;;;0.35;;
24409;SDS011;12543;53.364;-1.504;2024-01-15T07:38:48;0.52;;;0.30;;
24409;SDS011;12543;53.364;-1.504;2024-01-15T07:41:15;0.85;;;0.30;;
24409;SDS011;12543;53.364;-1.504;2024-01-15T07:43:43;2.17;;;0.40;;
24409;SDS011;12543;53.364;-1.504;2024-01-15T07:46:10;1.10;;;0.45;;
24409;SDS011;12543;53.364;-1.504;2024-01-15T07:48:38;1.50;;;0.57;;
24409;SDS011;12543;53.364;-1.504;2024-01-15T07:51:06;0.90;;;0.32;;
24409;SDS011;12543;53.364;-1.504;2024-01-15T07:53:33;0.63;;;0.40;;
24409;SDS011;12543;53.364;-1.504;2024-01-15T07:56:01;2.33;;;0.75;;
24409;SDS011;12543;53.364;-1.504;2024-01-15T07:58:28;1.33;;;0.50;;
24409;SDS011;12543;53.364;-1.504;2024-01-15T08:00:56;0.70;;;0.40;;
24409;SDS011;12543;53.364;-1.504;2024-01-15T08:03:24;2.97;;;0.63;;
24409;SDS011;12543;53.364;-1.504;2024-01-15T08:05:52;1.70;;;0.50;;
24409;SDS011;12543;53.364;-1.504;2024-01-15T08:08:21;1.33;;;0.57;;
24409;SDS011;12543;53.364;-1.504;2024-01-15T08:10:48;2.28;;;0.60;;
24409;SDS011;12543;53.364;-1.504;2024-01-15T08:13:16;1.23;;;0.65;;
24409;SDS011;12543;53.364;-1.504;2024-01-15T08:15:44;3.60;;;1.00;;
24409;SDS011;12543;53.364;-1.504;2024-01-15T08:18:11;1.83;;;0.90;;
24409;SDS011;12543;53.364;-1.504;2024-01-15T08:20:39;1.48;;;0.90;;
24409;SDS011;12543;53.364;-1.504;2024-01-15T08:23:07;1.33;;;0.70;;
24409;SDS011;12543;53.364;-1.504;2024-01-15T08:25:36;2.03;;;0.98;;
24409;SDS011;12543;53.364;-1.504;2024-01-15T08:28:03;2.47;;;1.00;;
24409;SDS011;12543;53.364;-1.504;2024-01-15T08:30:31;2.10;;;0.90;;
24409;SDS011;12543;53.364;-1.504;2024-01-15T08:32:59;1.83;;;0.90;;
24409;SDS011;12543;53.364;-1.504;2024-01-15T08:35:37;1.77;;;0.70;;
24409;SDS011;12543;53.364;-1.504;2024-01-15T08:38:04;1.63;;;1.00;;
24409;SDS011;12543;53.364;-1.504;2024-01-15T08:40:32;1.35;;;0.63;;
24409;SDS011;12543;53.364;-1.504;2024-01-15T08:43:00;2.27;;;0.80;;
24409;SDS011;12543;53.364;-1.504;2024-01-15T08:45:28;2.33;;;0.80;;
24409;SDS011;12543;53.364;-1.504;2024-01-15T08:47:58;2.53;;;0.70;;
24409;SDS011;12543;53.364;-1.504;2024-01-15T08:50:26;1.02;;;0.60;;
24409;SDS011;12543;53.364;-1.504;2024-01-15T08:52:53;1.70;;;0.52;;
24409;SDS011;12543;53.364;-1.504;2024-01-15T08:55:21;1.35;;;0.68;;
24409;SDS011;12543;53.364;-1.504;2024-01-15T08:57:49;1.57;;;0.70;;
24409;SDS011;12543;53.364;-1.504;2024-01-15T09:00:19;1.27;;;0.70;;
24409;SDS011;12543;53.364;-1.504;2024-01-15T09:02:47;2.92;;;0.70;;
24409;SDS011;12543;53.364;-1.504;2024-01-15T09:05:14;1.77;;;0.60;;
24409;SDS011;12543;53.364;-1.504;2024-01-15T09:07:42;1.88;;;0.55;;
24409;SDS011;12543;53.364;-1.504;2024-01-15T09:10:12;1.58;;;0.80;;
24409;SDS011;12543;53.364;-1.504;2024-01-15T09:12:42;0.93;;;0.50;;
24409;SDS011;12543;53.364;-1.504;2024-01-15T09:15:09;0.83;;;0.40;;
24409;SDS011;12543;53.364;-1.504;2024-01-15T09:17:37;1.48;;;0.95;;
24409;SDS011;12543;53.364;-1.504;2024-01-15T09:20:05;1.73;;;0.70;;
24409;SDS011;12543;53.364;-1.504;2024-01-15T09:22:33;2.47;;;0.70;;
24409;SDS011;12543;53.364;-1.504;2024-01-15T09:25:00;1.13;;;0.63;;
24409;SDS011;12543;53.364;-1.504;2024-01-15T09:27:28;3.87;;;0.70;;
24409;SDS011;12543;53.364;-1.504;2024-01-15T09:29:56;0.93;;;0.50;;
24409;SDS011;12543;53.364;-1.504;2024-01-15T09:32:23;2.17;;;0.80;;
24409;SDS011;12543;53.364;-1.504;2024-01-15T09:34:51;1.02;;;0.68;;
24409;SDS011;12543;53.364;-1.504;2024-01-15T09:37:19;0.90;;;0.63;;
24409;SDS011;12543;53.364;-1.504;2024-01-15T09:40:06;1.77;;;0.63;;
24409;SDS011;12543;53.364;-1.504;2024-01-15T09:42:35;1.23;;;0.60;;
24409;SDS011;12543;53.364;-1.504;2024-01-15T09:45:03;0.98;;;0.52;;
24409;SDS011;12543;53.364;-1.504;2024-01-15T09:47:31;1.77;;;0.82;;
24409;SDS011;12543;53.364;-1.504;2024-01-15T09:49:58;2.10;;;0.70;;
24409;SDS011;12543;53.364;-1.504;2024-01-15T09:52:26;2.20;;;0.65;;
24409;SDS011;12543;53.364;-1.504;2024-01-15T09:54:54;2.67;;;0.60;;
24409;SDS011;12543;53.364;-1.504;2024-01-15T09:57:21;2.37;;;0.90;;
24409;SDS011;12543;53.364;-1.504;2024-01-15T09:59:50;2.28;;;0.73;;
24409;SDS011;12543;53.364;-1.504;2024-01-15T10:02:19;2.47;;;0.90;;
24409;SDS011;12543;53.364;-1.504;2024-01-15T10:04:47;1.30;;;0.73;;
24409;SDS011;12543;53.364;-1.504;2024-01-15T10:07:15;1.00;;;0.70;;
24409;SDS011;12543;53.364;-1.504;2024-01-15T10:09:46;2.25;;;0.85;;
24409;SDS011;12543;53.364;-1.504;2024-01-15T10:14:41;1.17;;;0.47;;
24409;SDS011;12543;53.364;-1.504;2024-01-15T10:17:13;2.15;;;0.60;;
24409;SDS011;12543;53.364;-1.504;2024-01-15T10:19:41;2.38;;;0.70;;
24409;SDS011;12543;53.364;-1.504;2024-01-15T10:22:15;1.95;;;0.70;;
24409;SDS011;12543;53.364;-1.504;2024-01-15T10:24:42;3.17;;;0.77;;
24409;SDS011;12543;53.364;-1.504;2024-01-15T10:27:10;4.70;;;0.77;;
24409;SDS011;12543;53.364;-1.504;2024-01-15T10:29:38;2.22;;;0.50;;
24409;SDS011;12543;53.364;-1.504;2024-01-15T10:32:06;0.93;;;0.70;;
24409;SDS011;12543;53.364;-1.504;2024-01-15T10:34:38;2.17;;;0.80;;
24409;SDS011;12543;53.364;-1.504;2024-01-15T10:37:10;1.90;;;0.60;;
24409;SDS011;12543;53.364;-1.504;2024-01-15T10:39:38;0.90;;;0.68;;
24409;SDS011;12543;53.364;-1.504;2024-01-15T10:42:06;1.80;;;0.70;;
24409;SDS011;12543;53.364;-1.504;2024-01-15T10:44:34;2.05;;;0.73;;
24409;SDS011;12543;53.364;-1.504;2024-01-15T10:47:02;1.33;;;0.60;;
24409;SDS011;12543;53.364;-1.504;2024-01-15T10:49:31;1.80;;;0.80;;
24409;SDS011;12543;53.364;-1.504;2024-01-15T10:52:00;1.48;;;0.60;;
24409;SDS011;12543;53.364;-1.504;2024-01-15T10:54:29;2.75;;;0.63;;
24409;SDS011;12543;53.364;-1.504;2024-01-15T10:56:57;1.60;;;0.65;;
24409;SDS011;12543;53.364;-1.504;2024-01-15T10:59:25;2.17;;;0.60;;
24409;SDS011;12543;53.364;-1.504;2024-01-15T11:01:53;3.23;;;0.60;;
24409;SDS011;12543;53.364;-1.504;2024-01-15T11:04:22;3.75;;;0.70;;
24409;SDS011;12543;53.364;-1.504;2024-01-15T11:06:52;1.35;;;0.47;;
24409;SDS011;12543;53.364;-1.504;2024-01-15T11:09:23;1.20;;;0.70;;
24409;SDS011;12543;53.364;-1.504;2024-01-15T11:11:52;1.25;;;0.65;;
24409;SDS011;12543;53.364;-1.504;2024-01-15T11:14:40;1.10;;;0.60;;
24409;SDS011;12543;53.364;-1.504;2024-01-15T11:17:10;1.52;;;0.63;;
24409;SDS011;12543;53.364;-1.504;2024-01-15T11:22:10;1.52;;;0.68;;
24409;SDS011;12543;53.364;-1.504;2024-01-15T11:24:39;0.70;;;0.40;;
24409;SDS011;12543;53.364;-1.504;2024-01-15T11:27:07;2.45;;;0.80;;
24409;SDS011;12543;53.364;-1.504;2024-01-15T11:29:36;3.97;;;0.88;;
24409;SDS011;12543;53.364;-1.504;2024-01-15T11:37:00;2.17;;;0.60;;
24409;SDS011;12543;53.364;-1.504;2024-01-15T11:42:02;4.18;;;1.02;;
24409;SDS011;12543;53.364;-1.504;2024-01-15T11:44:30;3.50;;;1.10;;
24409;SDS011;12543;53.364;-1.504;2024-01-15T11:46:58;3.83;;;1.00;;
24409;SDS011;12543;53.364;-1.504;2024-01-15T11:52:06;4.32;;;1.00;;
24409;SDS011;12543;53.364;-1.504;2024-01-15T11:57:04;3.10;;;0.80;;
24409;SDS011;12543;53.364;-1.504;2024-01-15T11:59:34;3.45;;;0.68;;
24409;SDS011;12543;53.364;-1.504;2024-01-15T12:02:02;2.13;;;0.90;;
24409;SDS011;12543;53.364;-1.504;2024-01-15T12:04:30;2.75;;;1.20;;
24409;SDS011;12543;53.364;-1.504;2024-01-15T12:06:57;2.42;;;0.98;;
24409;SDS011;12543;53.364;-1.504;2024-01-15T12:09:25;3.57;;;1.20;;
24409;SDS011;12543;53.364;-1.504;2024-01-15T12:11:56;2.17;;;0.90;;
24409;SDS011;12543;53.364;-1.504;2024-01-15T12:14:26;1.50;;;0.70;;
24409;SDS011;12543;53.364;-1.504;2024-01-15T12:16:55;3.60;;;1.08;;
24409;SDS011;12543;53.364;-1.504;2024-01-15T12:19:24;3.10;;;1.00;;
24409;SDS011;12543;53.364;-1.504;2024-01-15T12:21:51;2.20;;;1.00;;
24409;SDS011;12543;53.364;-1.504;2024-01-15T12:24:19;4.30;;;0.93;;
24409;SDS011;12543;53.364;-1.504;2024-01-15T12:26:47;5.00;;;1.13;;
24409;SDS011;12543;53.364;-1.504;2024-01-15T12:29:17;1.42;;;0.70;;
24409;SDS011;12543;53.364;-1.504;2024-01-15T12:31:47;2.47;;;0.88;;
24409;SDS011;12543;53.364;-1.504;2024-01-15T12:34:15;2.53;;;1.10;;
24409;SDS011;12543;53.364;-1.504;2024-01-15T12:36:46;2.60;;;1.20;;
24409;SDS011;12543;53.364;-1.504;2024-01-15T12:39:13;2.38;;;1.10;;
24409;SDS011;12543;53.364;-1.504;2024-01-15T12:41:42;2.25;;;0.90;;
24409;SDS011;12543;53.364;-1.504;2024-01-15T12:44:09;1.87;;;0.70;;
24409;SDS011;12543;53.364;-1.504;2024-01-15T12:46:38;3.55;;;0.80;;
24409;SDS011;12543;53.364;-1.504;2024-01-15T12:49:06;2.38;;;0.90;;
24409;SDS011;12543;53.364;-1.504;2024-01-15T12:51:35;3.53;;;1.52;;
24409;SDS011;12543;53.364;-1.504;2024-01-15T12:54:02;2.30;;;1.40;;
24409;SDS011;12543;53.364;-1.504;2024-01-15T12:56:30;3.93;;;1.90;;
24409;SDS011;12543;53.364;-1.504;2024-01-15T12:58:57;6.40;;;1.98;;
24409;SDS011;12543;53.364;-1.504;2024-01-15T13:01:25;3.70;;;2.17;;
24409;SDS011;12543;53.364;-1.504;2024-01-15T13:03:53;4.60;;;2.40;;
24409;SDS011;12543;53.364;-1.504;2024-01-15T13:06:21;5.55;;;2.60;;
24409;SDS011;12543;53.364;-1.504;2024-01-15T13:08:48;6.50;;;3.17;;
24409;SDS011;12543;53.364;-1.504;2024-01-15T13:11:16;7.22;;;3.65;;
24409;SDS011;12543;53.364;-1.504;2024-01-15T13:16:12;4.55;;;2.22;;
24409;SDS011;12543;53.364;-1.504;2024-01-15T13:18:40;6.43;;;2.58;;
24409;SDS011;12543;53.364;-1.504;2024-01-15T13:21:10;6.85;;;2.60;;
24409;SDS011;12543;53.364;-1.504;2024-01-15T13:26:06;5.47;;;2.80;;
24409;SDS011;12543;53.364;-1.504;2024-01-15T13:28:34;6.30;;;2.47;;
24409;SDS011;12543;53.364;-1.504;2024-01-15T13:31:01;3.95;;;1.73;;
24409;SDS011;12543;53.364;-1.504;2024-01-15T13:33:29;4.03;;;1.50;;
24409;SDS011;12543;53.364;-1.504;2024-01-15T13:35:57;3.00;;;1.73;;
24409;SDS011;12543;53.364;-1.504;2024-01-15T13:38:24;3.42;;;1.80;;
24409;SDS011;12543;53.364;-1.504;2024-01-15T13:43:22;6.45;;;2.25;;
24409;SDS011;12543;53.364;-1.504;2024-01-15T13:45:49;5.10;;;1.83;;
24409;SDS011;12543;53.364;-1.504;2024-01-15T13:48:17;2.72;;;1.70;;
24409;SDS011;12543;53.364;-1.504;2024-01-15T13:50:44;3.42;;;1.60;;
24409;SDS011;12543;53.364;-1.504;2024-01-15T13:53:12;2.13;;;1.42;;
24409;SDS011;12543;53.364;-1.504;2024-01-15T13:55:39;3.53;;;1.45;;
24409;SDS011;12543;53.364;-1.504;2024-01-15T13:58:07;3.83;;;1.33;;
24409;SDS011;12543;53.364;-1.504;2024-01-15T14:00:35;3.78;;;1.25;;
24409;SDS011;12543;53.364;-1.504;2024-01-15T14:03:03;3.92;;;1.60;;
24409;SDS011;12543;53.364;-1.504;2024-01-15T14:05:33;3.60;;;1.73;;
24409;SDS011;12543;53.364;-1.504;2024-01-15T14:08:01;5.30;;;1.60;;
24409;SDS011;12543;53.364;-1.504;2024-01-15T14:10:30;3.47;;;1.30;;
24409;SDS011;12543;53.364;-1.504;2024-01-15T14:12:57;4.28;;;1.05;;
24409;SDS011;12543;53.364;-1.504;2024-01-15T14:15:25;4.23;;;1.20;;
24409;SDS011;12543;53.364;-1.504;2024-01-15T14:17:54;1.85;;;0.90;;
24409;SDS011;12543;53.364;-1.504;2024-01-15T14:20:21;2.40;;;0.90;;
24409;SDS011;12543;53.364;-1.504;2024-01-15T14:22:49;1.70;;;0.70;;
24409;SDS011;12543;53.364;-1.504;2024-01-15T14:25:17;1.90;;;0.87;;
24409;SDS011;12543;53.364;-1.504;2024-01-15T14:27:45;1.48;;;0.85;;
24409;SDS011;12543;53.364;-1.504;2024-01-15T14:30:13;1.93;;;0.70;;
24409;SDS011;12543;53.364;-1.504;2024-01-15T14:32:43;1.73;;;0.82;;
24409;SDS011;12543;53.364;-1.504;2024-01-15T14:37:38;1.30;;;0.83;;
24409;SDS011;12543;53.364;-1.504;2024-01-15T14:40:06;3.20;;;0.97;;
24409;SDS011;12543;53.364;-1.504;2024-01-15T14:42:37;1.85;;;0.80;;
24409;SDS011;12543;53.364;-1.504;2024-01-15T14:45:04;1.30;;;0.63;;
24409;SDS011;12543;53.364;-1.504;2024-01-15T14:47:39;3.28;;;0.80;;
24409;SDS011;12543;53.364;-1.504;2024-01-15T14:50:07;2.60;;;0.77;;
24409;SDS011;12543;53.364;-1.504;2024-01-15T14:52:35;3.08;;;0.90;;
24409;SDS011;12543;53.364;-1.504;2024-01-15T14:55:02;0.93;;;0.70;;
24409;SDS011;12543;53.364;-1.504;2024-01-15T14:57:31;2.92;;;0.70;;
24409;SDS011;12543;53.364;-1.504;2024-01-15T14:59:58;1.50;;;0.90;;
24409;SDS011;12543;53.364;-1.504;2024-01-15T15:02:26;2.75;;;1.30;;
24409;SDS011;12543;53.364;-1.504;2024-01-15T15:04:57;2.80;;;1.10;;
24409;SDS011;12543;53.364;-1.504;2024-01-15T15:07:25;1.97;;;0.90;;
24409;SDS011;12543;53.364;-1.504;2024-01-15T15:09:53;2.25;;;1.00;;
24409;SDS011;12543;53.364;-1.504;2024-01-15T15:12:20;1.60;;;0.77;;
24409;SDS011;12543;53.364;-1.504;2024-01-15T15:14:48;4.00;;;0.90;;
24409;SDS011;12543;53.364;-1.504;2024-01-15T15:17:29;1.30;;;0.80;;
24409;SDS011;12543;53.364;-1.504;2024-01-15T15:19:57;4.13;;;0.90;;
24409;SDS011;12543;53.364;-1.504;2024-01-15T15:22:25;1.23;;;0.65;;